National Weather Service Raw Text Product

Displaying AFOS PIL: TAFOTM Received: 2018-02-09 23:29 UTC


697 
FTUS43 KDMX 092329
TAFOTM
TAF
KOTM 092329Z 1000/1024 01010KT P6SM SCT025 BKN070
     FM100400 36010KT 6SM -SN SCT030 OVC040
     FM100600 01010KT 1SM -SN OVC018
     FM101200 35008KT P6SM OVC028
     FM101500 36009KT P6SM BKN070=